Time;durP1;ratioP1;P1;durP2;ratioP2;P2;SDS_P1;SDS_P2;PMS_P1;PMS_P2;Temp;Humidity;BMP_temperature;BMP_pressure;BME280_temperature;BME280_humidity;BME280_pressure;Samples;Min_cycle;Max_cycle;Signal;HPM_P1;HPM_P2
2021/12/11 00:00:48;;;;;;;4.18;3.70;;;;;;;;;;5034639;28;20459;-50
2021/12/11 00:03:20;;;;;;;5.20;4.07;;;;;;;;;;5031498;28;20033;-51
2021/12/11 00:05:55;;;;;;;10.07;4.95;;;;;;;;;;5032189;28;20386;-50
2021/12/11 00:08:26;;;;;;;5.18;4.68;;;;;;;;;;5032509;28;20037;-49
2021/12/11 00:10:57;;;;;;;12.80;3.70;;;;;;;;;;5033307;28;20033;-52
2021/12/11 00:13:27;;;;;;;6.68;5.28;;;;;;;;;;5033998;28;20100;-51
2021/12/11 00:15:53;;;;;;;6.43;4.95;;;;;;;;;;5029311;28;20083;-51
2021/12/11 00:18:23;;;;;;;4.45;3.75;;;;;;;;;;5035012;28;20033;-51
2021/12/11 00:21:16;;;;;;;8.10;5.53;;;;;;;;;;5031847;28;20119;-52
2021/12/11 00:23:43;;;;;;;6.93;5.25;;;;;;;;;;5032761;28;20052;-54
2021/12/11 00:26:12;;;;;;;7.10;4.57;;;;;;;;;;5032285;28;20031;-51
2021/12/11 00:28:49;;;;;;;4.70;4.25;;;;;;;;;;5031711;28;20088;-54
2021/12/11 00:31:15;;;;;;;5.47;4.50;;;;;;;;;;5033355;28;20037;-52
2021/12/11 00:33:41;;;;;;;6.60;4.75;;;;;;;;;;5036832;28;20034;-51
2021/12/11 00:36:13;;;;;;;4.43;3.78;;;;;;;;;;5032424;28;20089;-52
2021/12/11 00:38:39;;;;;;;;;;;;;;;;;;5025128;28;20037;-51
2021/12/11 00:41:09;;;;;;;6.50;4.90;;;;;;;;;;5030721;28;20361;-54
2021/12/11 00:43:36;;;;;;;12.00;4.60;;;;;;;;;;5036408;28;20060;-53
2021/12/11 00:46:05;;;;;;;6.82;5.05;;;;;;;;;;5033088;28;20480;-51
2021/12/11 00:48:31;;;;;;;10.15;5.30;;;;;;;;;;5036690;28;20048;-52
2021/12/11 00:51:11;;;;;;;6.82;4.88;;;;;;;;;;5033894;28;20041;-52
2021/12/11 00:53:41;;;;;;;5.60;4.47;;;;;;;;;;5031318;28;20471;-52
2021/12/11 00:56:21;;;;;;;6.60;4.43;;;;;;;;;;5031613;28;20029;-50
2021/12/11 00:58:50;;;;;;;7.75;5.07;;;;;;;;;;5036031;28;20505;-50
2021/12/11 01:01:20;;;;;;;8.00;4.68;;;;;;;;;;5032230;28;20677;-50
2021/12/11 01:03:51;;;;;;;4.63;4.03;;;;;;;;;;5032060;28;20146;-52
2021/12/11 01:06:21;;;;;;;4.90;4.47;;;;;;;;;;5033545;28;20037;-50
2021/12/11 01:08:54;;;;;;;5.15;4.32;;;;;;;;;;5034419;28;20129;-54
2021/12/11 01:11:34;;;;;;;6.63;4.78;;;;;;;;;;5036060;28;20041;-51
2021/12/11 01:14:13;;;;;;;5.63;5.05;;;;;;;;;;5034180;28;20036;-53
2021/12/11 01:16:40;;;;;;;7.55;5.70;;;;;;;;;;5027514;28;20621;-52
2021/12/11 01:19:07;;;;;;;5.75;4.90;;;;;;;;;;5027990;28;20450;-52
2021/12/11 01:24:31;;;;;;;6.28;4.50;;;;;;;;;;5031488;28;20444;-52
2021/12/11 01:27:02;;;;;;;6.53;4.30;;;;;;;;;;5027421;28;20037;-53
2021/12/11 01:29:30;;;;;;;5.50;4.05;;;;;;;;;;5026045;28;20335;-52
2021/12/11 01:31:57;;;;;;;5.30;4.32;;;;;;;;;;5028058;28;20033;-52
2021/12/11 01:34:23;;;;;;;7.10;5.03;;;;;;;;;;5023595;28;20082;-53
2021/12/11 01:36:50;;;;;;;6.65;4.70;;;;;;;;;;5026682;28;20048;-53
2021/12/11 01:39:22;;;;;;;5.78;4.30;;;;;;;;;;5029112;28;20033;-54
2021/12/11 01:41:50;;;;;;;4.95;4.20;;;;;;;;;;5029231;28;20033;-54
2021/12/11 01:44:30;;;;;;;5.22;4.40;;;;;;;;;;5029770;28;20033;-52
2021/12/11 01:47:05;;;;;;;6.20;4.85;;;;;;;;;;5032300;28;20402;-52
2021/12/11 01:49:32;;;;;;;5.78;4.70;;;;;;;;;;5038724;28;20029;-55
2021/12/11 01:52:09;;;;;;;7.15;5.50;;;;;;;;;;5038574;28;20041;-52
2021/12/11 01:54:37;;;;;;;6.53;4.57;;;;;;;;;;5037394;28;20056;-54
2021/12/11 01:57:26;;;;;;;7.22;4.97;;;;;;;;;;5029225;28;20037;-50
2021/12/11 02:00:06;;;;;;;4.55;3.55;;;;;;;;;;5033723;28;20041;-52
2021/12/11 02:02:36;;;;;;;5.80;4.05;;;;;;;;;;5035325;28;20129;-50
2021/12/11 02:05:03;;;;;;;7.30;5.63;;;;;;;;;;5036365;28;20347;-51
2021/12/11 02:07:56;;;;;;;8.30;5.35;;;;;;;;;;5031079;28;20052;-50
2021/12/11 02:10:29;;;;;;;8.48;5.95;;;;;;;;;;5025970;28;20049;-53
2021/12/11 02:12:56;;;;;;;5.68;5.07;;;;;;;;;;5033777;28;20033;-53
2021/12/11 02:15:30;;;;;;;5.47;4.57;;;;;;;;;;5035151;28;20470;-51
2021/12/11 02:18:00;;;;;;;6.07;5.47;;;;;;;;;;5031735;28;20255;-50
2021/12/11 02:20:35;;;;;;;9.63;5.15;;;;;;;;;;5029155;28;20039;-49
2021/12/11 02:23:01;;;;;;;6.90;4.68;;;;;;;;;;5028818;28;20151;-51
2021/12/11 02:25:35;;;;;;;5.13;4.60;;;;;;;;;;5031005;28;20124;-53
2021/12/11 02:28:06;;;;;;;4.68;4.00;;;;;;;;;;5032674;28;20128;-50
2021/12/11 02:30:41;;;;;;;6.15;4.82;;;;;;;;;;5030971;28;20085;-54
2021/12/11 02:33:33;;;;;;;6.70;5.03;;;;;;;;;;5033405;28;20037;-54
2021/12/11 02:36:10;;;;;;;5.72;5.13;;;;;;;;;;5037960;28;20061;-51
2021/12/11 02:39:05;;;;;;;6.55;5.40;;;;;;;;;;5034754;28;20038;-53
2021/12/11 02:41:49;;;;;;;6.68;4.90;;;;;;;;;;5036158;28;20035;-54
2021/12/11 02:44:37;;;;;;;6.68;5.40;;;;;;;;;;5032022;28;20076;-51
2021/12/11 02:47:12;;;;;;;7.82;5.28;;;;;;;;;;5031797;28;20067;-53
2021/12/11 02:49:48;;;;;;;6.18;4.13;;;;;;;;;;5030411;28;20033;-52
2021/12/11 02:52:30;;;;;;;5.55;4.90;;;;;;;;;;5035633;28;20108;-52
2021/12/11 02:55:26;;;;;;;6.25;5.07;;;;;;;;;;5030454;28;20690;-54
2021/12/11 02:57:56;;;;;;;7.65;5.90;;;;;;;;;;5034830;28;20060;-53
2021/12/11 03:00:30;;;;;;;6.32;5.10;;;;;;;;;;5034439;28;20117;-54
2021/12/11 03:03:06;;;;;;;6.35;4.70;;;;;;;;;;5034212;28;20029;-53
2021/12/11 03:05:45;;;;;;;5.40;4.70;;;;;;;;;;5035646;28;20026;-54
2021/12/11 03:08:14;;;;;;;6.90;5.47;;;;;;;;;;5028429;28;20049;-54
2021/12/11 03:10:42;;;;;;;7.07;5.15;;;;;;;;;;5029724;28;20053;-52
2021/12/11 03:13:08;;;;;;;7.65;4.03;;;;;;;;;;5024684;28;20041;-54
2021/12/11 03:15:34;;;;;;;4.95;3.80;;;;;;;;;;5029166;28;20048;-56
2021/12/11 03:18:01;;;;;;;6.60;4.93;;;;;;;;;;5030549;28;20041;-55
2021/12/11 03:20:26;;;;;;;9.02;5.30;;;;;;;;;;5026653;28;20025;-53
2021/12/11 03:22:52;;;;;;;7.20;4.88;;;;;;;;;;5030213;28;20727;-54
2021/12/11 03:25:24;;;;;;;12.25;4.53;;;;;;;;;;5028312;28;20037;-55
2021/12/11 03:27:49;;;;;;;4.50;3.92;;;;;;;;;;5027048;28;20263;-56
2021/12/11 03:30:22;;;;;;;4.78;4.10;;;;;;;;;;5029524;28;20116;-54
2021/12/11 03:32:53;;;;;;;6.18;5.03;;;;;;;;;;5030934;28;20040;-56
2021/12/11 03:35:19;;;;;;;4.88;3.85;;;;;;;;;;5030020;28;20704;-55
2021/12/11 03:37:44;;;;;;;4.68;3.90;;;;;;;;;;5028434;28;20108;-52
2021/12/11 03:40:10;;;;;;;6.25;4.68;;;;;;;;;;5029736;28;20173;-53
2021/12/11 03:42:40;;;;;;;8.85;3.97;;;;;;;;;;5026663;28;20404;-53
2021/12/11 03:45:18;;;;;;;4.70;3.67;;;;;;;;;;5027090;28;20439;-53
2021/12/11 03:47:48;;;;;;;5.25;4.28;;;;;;;;;;5028189;28;20044;-52
2021/12/11 03:50:19;;;;;;;5.00;4.47;;;;;;;;;;5028486;28;20044;-53
2021/12/11 03:52:46;;;;;;;7.70;5.38;;;;;;;;;;5028134;28;20457;-56
2021/12/11 03:55:19;;;;;;;5.25;4.05;;;;;;;;;;5026807;28;20029;-54
2021/12/11 03:57:45;;;;;;;6.28;4.70;;;;;;;;;;5029223;28;20047;-55
2021/12/11 04:00:16;;;;;;;4.57;4.10;;;;;;;;;;5027796;28;20068;-54
2021/12/11 04:02:44;;;;;;;5.43;4.65;;;;;;;;;;5026418;28;20033;-55
2021/12/11 04:05:10;;;;;;;4.60;3.92;;;;;;;;;;5027911;28;20029;-52
2021/12/11 04:07:43;;;;;;;7.82;4.97;;;;;;;;;;5029176;28;20037;-54
2021/12/11 04:10:11;;;;;;;4.88;4.18;;;;;;;;;;5025845;28;20109;-53
2021/12/11 04:12:37;;;;;;;3.83;3.10;;;;;;;;;;5027595;28;20042;-55
2021/12/11 04:15:04;;;;;;;4.72;4.25;;;;;;;;;;5027404;28;20377;-55
2021/12/11 04:17:30;;;;;;;4.88;4.20;;;;;;;;;;5029239;28;20037;-55
2021/12/11 04:19:58;;;;;;;4.28;3.33;;;;;;;;;;5030459;28;20439;-54
2021/12/11 04:22:25;;;;;;;10.02;5.03;;;;;;;;;;5025770;28;20880;-55
2021/12/11 04:24:51;;;;;;;5.65;3.65;;;;;;;;;;5030186;28;20041;-56
2021/12/11 04:27:19;;;;;;;5.53;4.97;;;;;;;;;;5028273;28;20037;-52
2021/12/11 04:29:48;;;;;;;4.47;3.97;;;;;;;;;;5027742;28;20037;-54
2021/12/11 04:32:15;;;;;;;6.03;4.30;;;;;;;;;;5024223;28;20045;-55
2021/12/11 04:34:40;;;;;;;5.05;4.38;;;;;;;;;;5031124;28;20037;-56
2021/12/11 04:37:15;;;;;;;6.10;5.18;;;;;;;;;;5027982;28;20047;-54
2021/12/11 04:39:44;;;;;;;5.85;4.03;;;;;;;;;;5025872;28;20159;-56
2021/12/11 04:42:26;;;;;;;5.05;4.40;;;;;;;;;;5028668;28;20059;-53
2021/12/11 04:44:52;;;;;;;4.05;3.67;;;;;;;;;;5024424;28;20479;-53
2021/12/11 04:47:45;;;;;;;6.72;3.85;;;;;;;;;;5027931;28;20118;-55
2021/12/11 04:50:48;;;;;;;9.18;5.03;;;;;;;;;;5030867;28;20060;-54
2021/12/11 04:53:37;;;;;;;4.95;4.43;;;;;;;;;;5034523;28;20041;-57
2021/12/11 05:01:35;;;;;;;5.00;4.17;;;;;;;;;;5033256;28;20072;-56
2021/12/11 05:04:13;;;;;;;;;;;;;;;;;;5035825;28;20121;-53
2021/12/11 05:09:24;;;;;;;4.25;3.83;;;;;;;;;;5030756;28;20038;-53
2021/12/11 05:12:26;;;;;;;4.60;4.10;;;;;;;;;;5034380;28;20443;-54
2021/12/11 05:14:51;;;;;;;5.07;4.38;;;;;;;;;;5036657;28;20044;-53
2021/12/11 05:17:18;;;;;;;6.63;4.82;;;;;;;;;;5039514;28;20028;-53
2021/12/11 05:19:45;;;;;;;5.60;4.90;;;;;;;;;;5038176;28;20025;-54
2021/12/11 05:22:12;;;;;;;5.72;4.45;;;;;;;;;;5039364;28;20033;-54
2021/12/11 05:24:41;;;;;;;5.05;4.35;;;;;;;;;;5037276;28;20098;-54
2021/12/11 05:27:07;;;;;;;6.32;5.07;;;;;;;;;;5037109;28;20632;-51
2021/12/11 05:29:33;;;;;;;5.13;4.43;;;;;;;;;;5039291;28;20104;-53
2021/12/11 05:32:00;;;;;;;5.60;4.22;;;;;;;;;;5037085;28;20037;-54
2021/12/11 05:34:26;;;;;;;6.65;4.45;;;;;;;;;;5038032;28;20017;-53
2021/12/11 05:36:52;;;;;;;5.45;4.50;;;;;;;;;;5037453;28;20032;-54
2021/12/11 05:39:20;;;;;;;4.10;3.70;;;;;;;;;;5037923;28;20036;-54
2021/12/11 05:41:47;;;;;;;5.05;4.15;;;;;;;;;;5038441;28;20033;-53
2021/12/11 05:44:13;;;;;;;6.30;5.20;;;;;;;;;;5035206;28;20091;-55
2021/12/11 05:46:39;;;;;;;8.93;5.20;;;;;;;;;;5037637;28;20581;-55
2021/12/11 05:49:06;;;;;;;6.32;5.45;;;;;;;;;;5034960;28;20083;-54
2021/12/11 05:51:38;;;;;;;5.03;4.53;;;;;;;;;;5039129;28;20485;-54
2021/12/11 05:54:06;;;;;;;6.55;4.72;;;;;;;;;;5035962;28;20526;-55
2021/12/11 05:56:35;;;;;;;5.00;4.25;;;;;;;;;;5038733;28;20540;-55
2021/12/11 05:59:04;;;;;;;6.30;5.25;;;;;;;;;;5035413;28;20033;-54
2021/12/11 06:01:36;;;;;;;6.90;4.78;;;;;;;;;;5034655;28;20052;-52
2021/12/11 06:04:04;;;;;;;;;;;;;;;;;;5039997;28;20120;-55
2021/12/11 06:06:29;;;;;;;5.05;4.43;;;;;;;;;;5039596;28;19909;-54
2021/12/11 06:08:55;;;;;;;4.53;4.07;;;;;;;;;;5035433;28;20428;-56
2021/12/11 06:11:20;;;;;;;6.00;5.05;;;;;;;;;;5037848;28;20060;-54
2021/12/11 06:13:46;;;;;;;4.72;4.10;;;;;;;;;;5038604;28;20087;-53
2021/12/11 06:16:14;;;;;;;5.85;4.65;;;;;;;;;;5038499;28;20734;-52
2021/12/11 06:18:40;;;;;;;7.63;5.00;;;;;;;;;;5034519;28;20340;-54
2021/12/11 06:21:06;;;;;;;4.97;3.85;;;;;;;;;;5035940;28;20124;-53
2021/12/11 06:23:31;;;;;;;16.20;5.63;;;;;;;;;;5035970;28;20432;-54
2021/12/11 06:25:57;;;;;;;6.70;6.00;;;;;;;;;;5039373;28;20029;-52
2021/12/11 06:28:24;;;;;;;6.22;5.25;;;;;;;;;;5037033;28;20025;-53
2021/12/11 06:30:50;;;;;;;5.68;4.88;;;;;;;;;;5035858;28;20144;-53
2021/12/11 06:33:15;;;;;;;6.43;5.22;;;;;;;;;;5036480;28;20602;-54
2021/12/11 06:35:52;;;;;;;7.10;4.57;;;;;;;;;;5034593;28;20360;-50
2021/12/11 06:38:21;;;;;;;5.40;4.32;;;;;;;;;;5037021;28;20044;-51
2021/12/11 06:40:48;;;;;;;5.30;4.25;;;;;;;;;;5037046;28;20504;-48
2021/12/11 06:43:14;;;;;;;5.80;4.78;;;;;;;;;;5037281;28;20372;-50
2021/12/11 06:45:39;;;;;;;5.20;4.18;;;;;;;;;;5035808;28;20352;-54
2021/12/11 06:48:05;;;;;;;6.35;5.15;;;;;;;;;;5036322;28;20063;-50
2021/12/11 06:50:31;;;;;;;6.40;4.65;;;;;;;;;;5038894;28;20032;-51
2021/12/11 06:52:59;;;;;;;5.10;4.13;;;;;;;;;;5037506;28;20029;-49
2021/12/11 06:55:25;;;;;;;5.18;4.15;;;;;;;;;;5041302;28;20021;-52
2021/12/11 06:57:50;;;;;;;4.90;4.43;;;;;;;;;;5040484;28;20033;-53
2021/12/11 07:00:19;;;;;;;5.63;4.05;;;;;;;;;;5035599;28;20108;-51
2021/12/11 07:02:45;;;;;;;5.53;4.82;;;;;;;;;;5035417;28;20479;-50
2021/12/11 07:05:11;;;;;;;5.65;4.88;;;;;;;;;;5034609;28;20061;-53
2021/12/11 07:07:37;;;;;;;5.88;5.30;;;;;;;;;;5033976;28;20033;-52
2021/12/11 07:10:08;;;;;;;8.13;5.47;;;;;;;;;;5034288;28;20029;-53
2021/12/11 07:12:34;;;;;;;5.35;4.45;;;;;;;;;;5035573;28;20471;-49
2021/12/11 07:15:00;;;;;;;7.85;5.75;;;;;;;;;;5036242;28;20045;-51
2021/12/11 07:17:25;;;;;;;5.00;4.50;;;;;;;;;;5035103;28;20108;-53
2021/12/11 07:19:51;;;;;;;4.90;4.38;;;;;;;;;;5038153;28;20044;-53
2021/12/11 07:22:17;;;;;;;5.22;4.63;;;;;;;;;;5035603;28;20167;-53
2021/12/11 07:25:02;;;;;;;5.20;4.68;;;;;;;;;;5035347;28;20543;-52
2021/12/11 07:27:29;;;;;;;8.38;5.43;;;;;;;;;;5033901;28;20032;-52
2021/12/11 07:29:54;;;;;;;5.97;5.38;;;;;;;;;;5034984;28;20029;-53
2021/12/11 07:32:20;;;;;;;6.60;5.68;;;;;;;;;;5036523;28;20462;-56
2021/12/11 07:34:45;;;;;;;10.95;5.40;;;;;;;;;;5036285;28;20022;-54
2021/12/11 07:37:11;;;;;;;5.65;4.45;;;;;;;;;;5033536;28;20029;-50
2021/12/11 07:39:37;;;;;;;8.43;6.35;;;;;;;;;;5037311;28;20052;-50
2021/12/11 07:42:03;;;;;;;5.80;4.85;;;;;;;;;;5038666;28;20183;-50
2021/12/11 07:44:28;;;;;;;5.43;4.88;;;;;;;;;;5033124;28;20041;-49
2021/12/11 07:46:56;;;;;;;10.23;6.03;;;;;;;;;;5037705;28;20033;-50
2021/12/11 07:49:22;;;;;;;6.85;6.00;;;;;;;;;;5036600;28;20036;-53
2021/12/11 07:51:49;;;;;;;5.32;4.78;;;;;;;;;;5035693;28;20025;-52
2021/12/11 07:54:15;;;;;;;6.63;5.85;;;;;;;;;;5036466;28;20037;-54
2021/12/11 07:56:41;;;;;;;5.50;5.00;;;;;;;;;;5037125;28;20021;-50
2021/12/11 07:59:08;;;;;;;6.57;5.47;;;;;;;;;;5034897;28;20663;-53
2021/12/11 08:01:37;;;;;;;6.10;5.50;;;;;;;;;;5034905;28;20057;-54
2021/12/11 08:04:04;;;;;;;12.02;5.35;;;;;;;;;;5035128;28;20116;-53
2021/12/11 08:06:31;;;;;;;5.40;4.90;;;;;;;;;;5036556;28;20061;-53
2021/12/11 08:08:57;;;;;;;5.97;5.35;;;;;;;;;;5037605;28;20518;-54
2021/12/11 08:11:28;;;;;;;11.68;5.20;;;;;;;;;;5034389;28;20040;-54
2021/12/11 08:13:54;;;;;;;4.72;4.20;;;;;;;;;;5036187;28;20021;-51
2021/12/11 08:16:24;;;;;;;8.40;5.65;;;;;;;;;;5032983;28;20679;-54
2021/12/11 08:18:50;;;;;;;7.68;4.85;;;;;;;;;;5034260;28;20038;-52
2021/12/11 08:21:16;;;;;;;5.20;4.38;;;;;;;;;;5034988;28;20037;-52
2021/12/11 08:23:44;;;;;;;6.70;6.00;;;;;;;;;;5033231;28;20041;-52
2021/12/11 08:26:15;;;;;;;6.35;4.97;;;;;;;;;;5034859;28;20067;-53
2021/12/11 08:28:41;;;;;;;6.32;5.50;;;;;;;;;;5036111;28;20025;-54
2021/12/11 08:31:06;;;;;;;6.22;5.38;;;;;;;;;;5035262;28;20167;-54
2021/12/11 08:33:31;;;;;;;5.63;4.60;;;;;;;;;;5034099;28;20063;-52
2021/12/11 08:35:57;;;;;;;8.55;5.57;;;;;;;;;;5037745;28;20121;-52
2021/12/11 08:38:22;;;;;;;6.15;5.35;;;;;;;;;;5033237;28;20520;-50
2021/12/11 08:40:52;;;;;;;5.82;5.20;;;;;;;;;;5033797;28;20044;-54
2021/12/11 08:43:20;;;;;;;5.97;5.32;;;;;;;;;;5033796;28;20029;-52
2021/12/11 08:45:57;;;;;;;10.48;6.28;;;;;;;;;;5019442;28;20037;-51
2021/12/11 08:48:24;;;;;;;8.18;5.55;;;;;;;;;;5034833;28;20083;-53
2021/12/11 08:50:53;;;;;;;7.32;5.65;;;;;;;;;;5036863;28;20116;-53
2021/12/11 08:53:19;;;;;;;8.20;6.38;;;;;;;;;;5033714;28;20032;-52
2021/12/11 08:55:54;;;;;;;5.28;4.78;;;;;;;;;;5034236;28;20043;-51
2021/12/11 08:58:21;;;;;;;7.20;6.22;;;;;;;;;;5038878;28;20092;-53
2021/12/11 09:01:05;;;;;;;7.82;7.00;;;;;;;;;;5039141;28;20367;-53
2021/12/11 09:03:36;;;;;;;6.10;5.50;;;;;;;;;;5038577;28;20050;-53
2021/12/11 09:06:05;;;;;;;6.03;5.30;;;;;;;;;;5037010;28;20499;-50
2021/12/11 09:08:43;;;;;;;6.18;5.57;;;;;;;;;;5037702;28;20416;-53
2021/12/11 09:11:17;;;;;;;7.63;6.32;;;;;;;;;;5041418;28;20048;-53
2021/12/11 09:13:45;;;;;;;5.82;5.00;;;;;;;;;;5039035;28;20025;-54
2021/12/11 09:16:15;;;;;;;6.05;5.45;;;;;;;;;;5035196;28;20049;-53
2021/12/11 09:18:55;;;;;;;9.80;6.03;;;;;;;;;;5037399;28;20095;-52
2021/12/11 09:21:30;;;;;;;14.25;5.75;;;;;;;;;;5038203;28;20021;-53
2021/12/11 09:24:08;;;;;;;5.90;5.10;;;;;;;;;;5036533;28;20029;-53
2021/12/11 09:26:48;;;;;;;7.40;5.95;;;;;;;;;;5039753;28;20051;-51
2021/12/11 09:29:20;;;;;;;5.95;5.35;;;;;;;;;;5035119;28;20038;-55
2021/12/11 09:32:10;;;;;;;6.15;5.55;;;;;;;;;;5036536;28;20041;-54
2021/12/11 09:34:46;;;;;;;6.38;5.40;;;;;;;;;;5039748;28;20029;-52
2021/12/11 09:37:12;;;;;;;8.70;7.10;;;;;;;;;;5041039;28;20107;-54
2021/12/11 09:39:43;;;;;;;6.18;5.10;;;;;;;;;;5036240;28;20026;-55
2021/12/11 09:42:08;;;;;;;8.65;5.00;;;;;;;;;;5036388;28;20025;-53
2021/12/11 09:44:43;;;;;;;13.75;6.63;;;;;;;;;;5035438;28;20037;-52
2021/12/11 09:47:31;;;;;;;8.68;6.85;;;;;;;;;;5035147;28;20086;-54
2021/12/11 09:50:08;;;;;;;8.77;6.70;;;;;;;;;;5035259;28;20596;-53
2021/12/11 09:52:34;;;;;;;5.55;4.93;;;;;;;;;;5039369;28;20079;-52
2021/12/11 09:55:07;;;;;;;6.07;5.45;;;;;;;;;;5039929;28;20025;-54
2021/12/11 09:57:38;;;;;;;8.48;6.43;;;;;;;;;;5036470;28;20044;-52
2021/12/11 10:00:12;;;;;;;10.02;5.90;;;;;;;;;;5029916;28;20025;-55
2021/12/11 10:02:37;;;;;;;8.40;5.72;;;;;;;;;;5028648;28;20037;-53
2021/12/11 10:05:19;;;;;;;10.68;6.93;;;;;;;;;;5033432;28;20061;-53
2021/12/11 10:08:01;;;;;;;6.38;5.57;;;;;;;;;;5033225;28;20041;-53
2021/12/11 10:10:27;;;;;;;12.07;6.68;;;;;;;;;;5032074;28;20390;-54
2021/12/11 10:12:56;;;;;;;6.65;5.72;;;;;;;;;;5031169;28;20033;-54
2021/12/11 10:15:31;;;;;;;10.00;6.93;;;;;;;;;;5029322;28;20033;-53
2021/12/11 10:18:03;;;;;;;6.25;5.28;;;;;;;;;;5030860;28;20048;-54
2021/12/11 10:20:52;;;;;;;7.00;5.25;;;;;;;;;;5030085;28;20029;-51
2021/12/11 10:23:23;;;;;;;7.35;6.55;;;;;;;;;;5027039;28;20025;-53
2021/12/11 10:25:49;;;;;;;9.00;6.60;;;;;;;;;;5027948;28;20129;-50
2021/12/11 10:28:19;;;;;;;7.68;6.55;;;;;;;;;;5026274;28;20033;-54
2021/12/11 10:30:52;;;;;;;13.48;7.70;;;;;;;;;;5029430;28;20038;-55
2021/12/11 10:33:22;;;;;;;11.23;6.57;;;;;;;;;;5030255;28;20438;-53
2021/12/11 10:35:53;;;;;;;7.03;6.05;;;;;;;;;;5030069;28;20094;-54
2021/12/11 10:38:20;;;;;;;9.10;5.53;;;;;;;;;;5030206;28;20044;-54
2021/12/11 10:40:49;;;;;;;7.93;7.13;;;;;;;;;;5029569;28;20041;-54
2021/12/11 10:43:25;;;;;;;7.72;5.70;;;;;;;;;;5031801;28;20025;-54
2021/12/11 10:45:51;;;;;;;9.73;7.45;;;;;;;;;;5027998;28;20371;-52
2021/12/11 10:48:22;;;;;;;6.45;5.85;;;;;;;;;;5027502;28;20041;-51
2021/12/11 10:50:55;;;;;;;8.82;5.88;;;;;;;;;;5034042;28;20033;-54
2021/12/11 10:53:23;;;;;;;7.93;5.97;;;;;;;;;;5029553;28;20455;-53
2021/12/11 10:55:50;;;;;;;7.40;6.13;;;;;;;;;;5030582;28;20041;-54
2021/12/11 10:58:24;;;;;;;8.50;6.70;;;;;;;;;;5032065;28;20038;-54
2021/12/11 11:00:57;;;;;;;8.20;7.15;;;;;;;;;;5029428;28;20034;-54
2021/12/11 11:03:26;;;;;;;5.60;5.10;;;;;;;;;;5033606;28;20139;-54
2021/12/11 11:05:51;;;;;;;11.65;7.57;;;;;;;;;;5030406;28;20041;-52
2021/12/11 11:08:17;;;;;;;6.13;5.40;;;;;;;;;;5033403;28;20081;-52
2021/12/11 11:10:49;;;;;;;10.75;7.88;;;;;;;;;;5027856;28;20038;-53
2021/12/11 11:13:15;;;;;;;12.13;6.72;;;;;;;;;;5032027;28;20120;-54
2021/12/11 11:15:42;;;;;;;8.02;6.50;;;;;;;;;;5028167;28;20025;-52
2021/12/11 11:18:10;;;;;;;8.68;7.22;;;;;;;;;;5031617;28;20040;-55
2021/12/11 11:20:48;;;;;;;9.82;7.53;;;;;;;;;;5029862;28;20029;-54
2021/12/11 11:23:13;;;;;;;7.32;5.72;;;;;;;;;;5032270;28;20352;-53
2021/12/11 11:25:44;;;;;;;6.88;5.65;;;;;;;;;;5026669;28;20098;-54
2021/12/11 11:28:14;;;;;;;6.70;5.57;;;;;;;;;;5031415;28;20037;-54
2021/12/11 11:30:44;;;;;;;6.70;5.93;;;;;;;;;;5028610;28;20041;-55
2021/12/11 11:33:10;;;;;;;8.43;6.00;;;;;;;;;;5029580;28;20044;-55
2021/12/11 11:35:42;;;;;;;11.50;5.75;;;;;;;;;;5027798;28;20399;-54
2021/12/11 11:38:13;;;;;;;5.60;4.70;;;;;;;;;;5030540;28;20036;-56
2021/12/11 11:40:44;;;;;;;5.93;4.45;;;;;;;;;;5028785;28;20028;-53
2021/12/11 11:43:10;;;;;;;7.43;5.43;;;;;;;;;;5030098;28;20111;-55
2021/12/11 11:45:37;;;;;;;5.80;5.22;;;;;;;;;;5025598;28;20030;-53
2021/12/11 11:48:03;;;;;;;5.43;4.40;;;;;;;;;;5030021;28;20715;-55
2021/12/11 11:50:34;;;;;;;9.77;5.15;;;;;;;;;;5026231;28;20028;-53
2021/12/11 11:53:00;;;;;;;7.97;4.80;;;;;;;;;;5027414;28;20040;-53
2021/12/11 11:55:31;;;;;;;5.07;4.47;;;;;;;;;;5031206;28;20474;-55
2021/12/11 11:57:58;;;;;;;9.13;5.00;;;;;;;;;;5002777;28;20032;-54
2021/12/11 12:00:29;;;;;;;5.60;4.80;;;;;;;;;;5025693;28;20040;-53
2021/12/11 12:02:56;;;;;;;7.38;5.28;;;;;;;;;;5029730;28;20021;-50
2021/12/11 12:05:22;;;;;;;5.55;4.28;;;;;;;;;;5027690;28;20029;-52
2021/12/11 12:07:48;;;;;;;8.02;5.18;;;;;;;;;;5026583;28;20099;-53
2021/12/11 12:10:18;;;;;;;4.53;4.10;;;;;;;;;;5032218;28;20128;-52
2021/12/11 12:12:44;;;;;;;6.00;4.72;;;;;;;;;;5030432;28;20049;-53
2021/12/11 12:15:17;;;;;;;3.80;3.40;;;;;;;;;;5028124;28;20035;-54
2021/12/11 12:17:42;;;;;;;6.00;4.65;;;;;;;;;;5032377;28;20033;-53
2021/12/11 12:20:11;;;;;;;6.22;4.70;;;;;;;;;;5028042;28;20491;-53
2021/12/11 12:22:38;;;;;;;9.55;4.47;;;;;;;;;;5025735;28;20029;-54
2021/12/11 12:25:04;;;;;;;5.35;4.00;;;;;;;;;;5028633;28;20029;-54
2021/12/11 12:27:32;;;;;;;6.50;4.75;;;;;;;;;;5031500;28;20055;-55
2021/12/11 12:30:00;;;;;;;9.40;4.85;;;;;;;;;;5028311;28;20068;-56
2021/12/11 12:32:29;;;;;;;4.25;3.63;;;;;;;;;;5026654;28;20048;-53
2021/12/11 12:35:02;;;;;;;6.65;5.88;;;;;;;;;;5029677;28;20041;-54
2021/12/11 12:37:28;;;;;;;4.38;3.28;;;;;;;;;;5029733;28;20683;-51
2021/12/11 12:39:56;;;;;;;4.57;3.85;;;;;;;;;;5030229;28;20065;-54
2021/12/11 12:42:52;;;;;;;4.25;3.42;;;;;;;;;;5030421;28;20552;-55
2021/12/11 12:45:23;;;;;;;3.65;3.28;;;;;;;;;;5025990;28;20033;-54
2021/12/11 12:47:59;;;;;;;5.38;4.10;;;;;;;;;;5030968;28;21856;-49
2021/12/11 12:50:39;;;;;;;4.05;3.65;;;;;;;;;;5030441;28;20037;-53
2021/12/11 12:53:05;;;;;;;5.47;4.80;;;;;;;;;;5030511;28;20061;-53
2021/12/11 12:55:40;;;;;;;4.28;3.88;;;;;;;;;;5028337;28;20916;-51
2021/12/11 12:58:13;;;;;;;4.68;4.15;;;;;;;;;;5025761;28;20116;-52
2021/12/11 13:00:49;;;;;;;6.10;4.72;;;;;;;;;;5028136;28;20048;-52
2021/12/11 13:03:19;;;;;;;5.47;4.85;;;;;;;;;;5028493;28;20554;-52
2021/12/11 13:05:54;;;;;;;6.00;4.20;;;;;;;;;;5026446;28;20037;-54
2021/12/11 13:08:33;;;;;;;8.00;4.57;;;;;;;;;;5026260;28;20033;-52
2021/12/11 13:11:05;;;;;;;5.38;4.80;;;;;;;;;;5025791;28;20112;-49
2021/12/11 13:13:30;;;;;;;6.07;4.50;;;;;;;;;;5024981;28;20522;-52
2021/12/11 13:16:05;;;;;;;6.07;4.30;;;;;;;;;;5029483;28;20047;-52
2021/12/11 13:18:36;;;;;;;4.90;4.43;;;;;;;;;;5025569;28;20130;-52
2021/12/11 13:21:18;;;;;;;6.70;4.00;;;;;;;;;;5030275;28;20076;-51
2021/12/11 13:23:46;;;;;;;4.63;4.15;;;;;;;;;;5034231;28;20502;-51
2021/12/11 13:26:14;;;;;;;7.20;4.68;;;;;;;;;;5034906;28;20086;-51
2021/12/11 13:28:47;;;;;;;4.30;3.55;;;;;;;;;;5034954;28;20045;-51
2021/12/11 13:31:20;;;;;;;5.72;4.85;;;;;;;;;;5034389;28;20037;-49
2021/12/11 13:33:47;;;;;;;3.97;3.58;;;;;;;;;;5033537;28;20060;-48
2021/12/11 13:36:15;;;;;;;5.13;4.18;;;;;;;;;;5033794;28;20060;-49
2021/12/11 13:38:42;;;;;;;5.75;4.18;;;;;;;;;;5034034;28;20025;-52
2021/12/11 13:41:15;;;;;;;8.77;3.63;;;;;;;;;;5041174;28;20063;-54
2021/12/11 13:43:41;;;;;;;7.20;5.00;;;;;;;;;;5038512;28;20056;-50
2021/12/11 13:46:08;;;;;;;5.35;3.83;;;;;;;;;;5037255;28;20617;-49
2021/12/11 13:48:34;;;;;;;3.45;3.08;;;;;;;;;;5037899;28;20534;-50
2021/12/11 13:51:10;;;;;;;6.88;5.28;;;;;;;;;;5038069;28;20028;-52
2021/12/11 13:53:37;;;;;;;4.53;3.92;;;;;;;;;;5038230;28;20017;-53
2021/12/11 13:56:08;;;;;;;4.65;3.78;;;;;;;;;;5037044;28;20094;-53
2021/12/11 13:58:34;;;;;;;4.72;4.13;;;;;;;;;;5036410;28;20063;-53
2021/12/11 14:01:14;;;;;;;5.15;4.15;;;;;;;;;;5032526;28;20041;-51
2021/12/11 14:03:40;;;;;;;4.47;4.07;;;;;;;;;;5035765;28;20056;-52
2021/12/11 14:06:09;;;;;;;6.10;4.32;;;;;;;;;;5037605;28;20359;-50
2021/12/11 14:08:38;;;;;;;5.78;5.18;;;;;;;;;;5037910;28;20116;-54
2021/12/11 14:11:06;;;;;;;4.53;3.47;;;;;;;;;;5037745;28;20033;-51
2021/12/11 14:13:32;;;;;;;7.88;5.18;;;;;;;;;;5033875;28;20132;-52
2021/12/11 14:15:59;;;;;;;8.77;4.45;;;;;;;;;;5036097;28;20104;-50
2021/12/11 14:18:25;;;;;;;4.60;4.18;;;;;;;;;;5038962;28;20099;-52
2021/12/11 14:20:54;;;;;;;5.93;3.65;;;;;;;;;;5035226;28;20026;-54
2021/12/11 14:23:24;;;;;;;4.45;3.58;;;;;;;;;;5035552;28;20106;-54
2021/12/11 14:25:50;;;;;;;3.90;3.50;;;;;;;;;;5037094;28;20034;-50
2021/12/11 14:28:19;;;;;;;3.88;3.22;;;;;;;;;;5034078;28;20028;-49
2021/12/11 14:30:48;;;;;;;4.90;4.40;;;;;;;;;;5035982;28;20040;-53
2021/12/11 14:33:14;;;;;;;4.95;4.22;;;;;;;;;;5037381;28;20029;-49
2021/12/11 14:35:39;;;;;;;4.28;3.85;;;;;;;;;;5034142;28;20026;-51
2021/12/11 14:38:08;;;;;;;6.43;4.47;;;;;;;;;;5036286;28;20352;-48
2021/12/11 14:40:37;;;;;;;4.50;3.92;;;;;;;;;;5036797;28;20464;-50
2021/12/11 14:43:04;;;;;;;6.28;4.82;;;;;;;;;;5036780;28;20094;-48
2021/12/11 14:45:38;;;;;;;5.05;4.55;;;;;;;;;;5038407;28;20030;-51
2021/12/11 14:48:07;;;;;;;4.28;3.60;;;;;;;;;;5039286;28;20231;-49
2021/12/11 14:50:37;;;;;;;5.60;3.92;;;;;;;;;;5034470;28;20035;-48
2021/12/11 14:53:04;;;;;;;3.97;3.58;;;;;;;;;;5036726;28;20049;-51
2021/12/11 14:55:36;;;;;;;4.35;3.85;;;;;;;;;;5035736;28;20031;-52
2021/12/11 14:58:01;;;;;;;8.82;5.15;;;;;;;;;;5039604;28;20387;-51
2021/12/11 15:00:29;;;;;;;5.55;4.00;;;;;;;;;;5035254;28;20043;-49
2021/12/11 15:02:55;;;;;;;5.43;4.80;;;;;;;;;;5038455;28;20203;-51
2021/12/11 15:05:26;;;;;;;5.03;3.65;;;;;;;;;;5032677;28;20071;-51
2021/12/11 15:07:52;;;;;;;4.47;3.97;;;;;;;;;;5033466;28;20037;-52
2021/12/11 15:10:25;;;;;;;4.47;3.83;;;;;;;;;;5038037;28;20034;-52
2021/12/11 15:12:51;;;;;;;4.32;3.67;;;;;;;;;;5039206;28;20047;-51